sensor_id;sensor_type;location;lat;lon;timestamp;pressure;altitude;pressure_sealevel;temperature
71807;BMP280;59655;42.590;23.364;2023-04-03T00:01:00;90879.81;;;8.13
71807;BMP280;59655;42.590;23.364;2023-04-03T00:03:26;90872.97;;;8.02
71807;BMP280;59655;42.590;23.364;2023-04-03T00:05:51;90877.56;;;8.02
71807;BMP280;59655;42.590;23.364;2023-04-03T00:08:17;90870.50;;;7.89
71807;BMP280;59655;42.590;23.364;2023-04-03T00:10:42;90862.41;;;7.79
71807;BMP280;59655;42.590;23.364;2023-04-03T00:13:08;90863.31;;;7.89
71807;BMP280;59655;42.590;23.364;2023-04-03T00:15:35;90860.81;;;7.99
71807;BMP280;59655;42.590;23.364;2023-04-03T00:18:01;90849.75;;;7.78
71807;BMP280;59655;42.590;23.364;2023-04-03T00:20:27;90851.31;;;8.04
71807;BMP280;59655;42.590;23.364;2023-04-03T00:22:52;90859.88;;;8.20
71807;BMP280;59655;42.590;23.364;2023-04-03T00:25:18;90859.56;;;8.15
71807;BMP280;59655;42.590;23.364;2023-04-03T00:27:44;90866.47;;;8.03
71807;BMP280;59655;42.590;23.364;2023-04-03T00:30:13;90864.88;;;8.08
71807;BMP280;59655;42.590;23.364;2023-04-03T00:32:39;90868.56;;;7.97
71807;BMP280;59655;42.590;23.364;2023-04-03T00:35:05;90863.81;;;7.88
71807;BMP280;59655;42.590;23.364;2023-04-03T00:37:30;90867.34;;;7.83
71807;BMP280;59655;42.590;23.364;2023-04-03T00:39:56;90867.00;;;7.71
71807;BMP280;59655;42.590;23.364;2023-04-03T00:42:22;90859.25;;;7.81
71807;BMP280;59655;42.590;23.364;2023-04-03T00:47:16;90865.94;;;7.89
71807;BMP280;59655;42.590;23.364;2023-04-03T00:49:42;90864.53;;;7.88
71807;BMP280;59655;42.590;23.364;2023-04-03T00:52:12;90860.28;;;7.78
71807;BMP280;59655;42.590;23.364;2023-04-03T00:54:40;90858.91;;;7.84
71807;BMP280;59655;42.590;23.364;2023-04-03T00:57:06;90858.41;;;7.70
71807;BMP280;59655;42.590;23.364;2023-04-03T00:59:35;90856.13;;;7.51
71807;BMP280;59655;42.590;23.364;2023-04-03T01:02:01;90855.56;;;7.68
71807;BMP280;59655;42.590;23.364;2023-04-03T01:04:35;90863.84;;;7.72
71807;BMP280;59655;42.590;23.364;2023-04-03T01:07:06;90861.22;;;7.72
71807;BMP280;59655;42.590;23.364;2023-04-03T01:09:33;90853.09;;;7.78
71807;BMP280;59655;42.590;23.364;2023-04-03T01:12:15;90860.13;;;7.75
71807;BMP280;59655;42.590;23.364;2023-04-03T01:14:42;90854.50;;;7.79
71807;BMP280;59655;42.590;23.364;2023-04-03T01:22:52;90843.22;;;7.86
71807;BMP280;59655;42.590;23.364;2023-04-03T01:25:21;90855.75;;;7.86
71807;BMP280;59655;42.590;23.364;2023-04-03T01:27:47;90853.28;;;7.80
71807;BMP280;59655;42.590;23.364;2023-04-03T01:30:15;90859.25;;;7.58
71807;BMP280;59655;42.590;23.364;2023-04-03T01:32:42;90856.63;;;7.35
71807;BMP280;59655;42.590;23.364;2023-04-03T01:35:09;90858.53;;;7.42
71807;BMP280;59655;42.590;23.364;2023-04-03T01:37:35;90851.16;;;7.40
71807;BMP280;59655;42.590;23.364;2023-04-03T01:40:01;90862.06;;;7.37
71807;BMP280;59655;42.590;23.364;2023-04-03T01:42:26;90857.47;;;7.29
71807;BMP280;59655;42.590;23.364;2023-04-03T01:44:52;90853.78;;;7.32
71807;BMP280;59655;42.590;23.364;2023-04-03T01:47:17;90855.91;;;7.34
71807;BMP280;59655;42.590;23.364;2023-04-03T01:49:43;90855.72;;;7.40
71807;BMP280;59655;42.590;23.364;2023-04-03T01:52:08;90859.44;;;7.44
71807;BMP280;59655;42.590;23.364;2023-04-03T01:54:34;90865.59;;;7.47
71807;BMP280;59655;42.590;23.364;2023-04-03T01:56:59;90859.75;;;7.33
71807;BMP280;59655;42.590;23.364;2023-04-03T01:59:25;90865.03;;;7.25
71807;BMP280;59655;42.590;23.364;2023-04-03T02:01:50;90857.81;;;7.18
71807;BMP280;59655;42.590;23.364;2023-04-03T02:04:16;90853.06;;;7.17
71807;BMP280;59655;42.590;23.364;2023-04-03T02:06:41;90851.13;;;7.09
71807;BMP280;59655;42.590;23.364;2023-04-03T02:09:07;90859.59;;;7.23
71807;BMP280;59655;42.590;23.364;2023-04-03T02:11:32;90852.91;;;7.30
71807;BMP280;59655;42.590;23.364;2023-04-03T02:13:58;90848.84;;;7.29
71807;BMP280;59655;42.590;23.364;2023-04-03T02:16:23;90849.53;;;7.29
71807;BMP280;59655;42.590;23.364;2023-04-03T02:18:49;90853.06;;;7.01
71807;BMP280;59655;42.590;23.364;2023-04-03T02:21:15;90850.06;;;7.05
71807;BMP280;59655;42.590;23.364;2023-04-03T02:23:40;90847.63;;;7.15
71807;BMP280;59655;42.590;23.364;2023-04-03T02:26:16;90851.28;;;7.04
71807;BMP280;59655;42.590;23.364;2023-04-03T02:28:41;90841.66;;;7.14
71807;BMP280;59655;42.590;23.364;2023-04-03T02:31:08;90840.22;;;7.13
71807;BMP280;59655;42.590;23.364;2023-04-03T02:33:34;90835.31;;;7.17
71807;BMP280;59655;42.590;23.364;2023-04-03T02:36:03;90843.22;;;7.17
71807;BMP280;59655;42.590;23.364;2023-04-03T02:38:29;90835.66;;;7.14
71807;BMP280;59655;42.590;23.364;2023-04-03T02:41:07;90834.59;;;7.09
71807;BMP280;59655;42.590;23.364;2023-04-03T02:43:33;90837.59;;;7.13
71807;BMP280;59655;42.590;23.364;2023-04-03T02:45:59;90834.22;;;7.05
71807;BMP280;59655;42.590;23.364;2023-04-03T02:48:25;90839.13;;;6.85
71807;BMP280;59655;42.590;23.364;2023-04-03T02:50:50;90832.63;;;6.86
71807;BMP280;59655;42.590;23.364;2023-04-03T02:53:16;90835.19;;;6.71
71807;BMP280;59655;42.590;23.364;2023-04-03T02:55:42;90828.59;;;6.93
71807;BMP280;59655;42.590;23.364;2023-04-03T02:58:08;90828.03;;;6.95
71807;BMP280;59655;42.590;23.364;2023-04-03T03:00:34;90826.84;;;6.96
71807;BMP280;59655;42.590;23.364;2023-04-03T03:03:00;90823.31;;;6.85
71807;BMP280;59655;42.590;23.364;2023-04-03T03:05:26;90826.78;;;6.73
71807;BMP280;59655;42.590;23.364;2023-04-03T03:07:52;90810.97;;;6.73
71807;BMP280;59655;42.590;23.364;2023-04-03T03:10:18;90811.97;;;6.62
71807;BMP280;59655;42.590;23.364;2023-04-03T03:12:43;90817.94;;;6.55
71807;BMP280;59655;42.590;23.364;2023-04-03T03:15:09;90818.81;;;6.49
71807;BMP280;59655;42.590;23.364;2023-04-03T03:17:34;90817.19;;;6.46
71807;BMP280;59655;42.590;23.364;2023-04-03T03:20:02;90810.66;;;6.40
71807;BMP280;59655;42.590;23.364;2023-04-03T03:22:27;90814.19;;;6.42
71807;BMP280;59655;42.590;23.364;2023-04-03T03:24:53;90810.41;;;6.59
71807;BMP280;59655;42.590;23.364;2023-04-03T03:27:19;90796.72;;;6.68
71807;BMP280;59655;42.590;23.364;2023-04-03T03:29:45;90811.09;;;6.59
71807;BMP280;59655;42.590;23.364;2023-04-03T03:32:10;90800.75;;;6.69
71807;BMP280;59655;42.590;23.364;2023-04-03T03:34:35;90810.63;;;6.76
71807;BMP280;59655;42.590;23.364;2023-04-03T03:37:01;90806.19;;;6.63
71807;BMP280;59655;42.590;23.364;2023-04-03T03:39:26;90804.44;;;6.66
71807;BMP280;59655;42.590;23.364;2023-04-03T03:41:52;90799.00;;;6.72
71807;BMP280;59655;42.590;23.364;2023-04-03T03:44:19;90800.63;;;6.82
71807;BMP280;59655;42.590;23.364;2023-04-03T03:46:45;90797.97;;;6.82
71807;BMP280;59655;42.590;23.364;2023-04-03T03:49:10;90808.69;;;6.84
71807;BMP280;59655;42.590;23.364;2023-04-03T03:51:36;90803.63;;;6.86
71807;BMP280;59655;42.590;23.364;2023-04-03T03:54:03;90812.59;;;6.91
71807;BMP280;59655;42.590;23.364;2023-04-03T03:56:29;90814.69;;;6.93
71807;BMP280;59655;42.590;23.364;2023-04-03T03:58:54;90813.13;;;6.89
71807;BMP280;59655;42.590;23.364;2023-04-03T04:01:22;90807.81;;;6.82
71807;BMP280;59655;42.590;23.364;2023-04-03T04:03:48;90799.59;;;6.85
71807;BMP280;59655;42.590;23.364;2023-04-03T04:06:13;90800.81;;;6.92
71807;BMP280;59655;42.590;23.364;2023-04-03T04:08:39;90805.56;;;6.94
71807;BMP280;59655;42.590;23.364;2023-04-03T04:11:05;90811.34;;;6.92
71807;BMP280;59655;42.590;23.364;2023-04-03T04:13:31;90816.78;;;6.86
71807;BMP280;59655;42.590;23.364;2023-04-03T04:15:56;90824.53;;;6.84
71807;BMP280;59655;42.590;23.364;2023-04-03T04:18:22;90823.25;;;6.62
71807;BMP280;59655;42.590;23.364;2023-04-03T04:20:48;90811.66;;;6.73
71807;BMP280;59655;42.590;23.364;2023-04-03T04:23:13;90812.91;;;6.80
71807;BMP280;59655;42.590;23.364;2023-04-03T04:25:39;90825.94;;;6.85
71807;BMP280;59655;42.590;23.364;2023-04-03T04:28:05;90825.94;;;6.93
71807;BMP280;59655;42.590;23.364;2023-04-03T04:30:30;90825.41;;;6.95
71807;BMP280;59655;42.590;23.364;2023-04-03T04:32:56;90824.72;;;6.94
71807;BMP280;59655;42.590;23.364;2023-04-03T04:35:21;90827.34;;;6.86
71807;BMP280;59655;42.590;23.364;2023-04-03T04:37:50;90829.03;;;6.68
71807;BMP280;59655;42.590;23.364;2023-04-03T04:40:16;90829.16;;;6.55
71807;BMP280;59655;42.590;23.364;2023-04-03T04:42:41;90832.38;;;6.61
71807;BMP280;59655;42.590;23.364;2023-04-03T04:45:07;90830.13;;;6.73
71807;BMP280;59655;42.590;23.364;2023-04-03T04:47:32;90840.16;;;6.82
71807;BMP280;59655;42.590;23.364;2023-04-03T04:49:58;90846.84;;;6.83
71807;BMP280;59655;42.590;23.364;2023-04-03T04:52:23;90848.63;;;6.88
71807;BMP280;59655;42.590;23.364;2023-04-03T04:54:49;90844.78;;;6.97
71807;BMP280;59655;42.590;23.364;2023-04-03T04:57:15;90848.28;;;7.00
71807;BMP280;59655;42.590;23.364;2023-04-03T04:59:40;90855.00;;;7.01
71807;BMP280;59655;42.590;23.364;2023-04-03T05:02:06;90858.66;;;7.05
71807;BMP280;59655;42.590;23.364;2023-04-03T05:04:32;90862.56;;;7.12
71807;BMP280;59655;42.590;23.364;2023-04-03T05:06:58;90866.94;;;7.02
71807;BMP280;59655;42.590;23.364;2023-04-03T05:09:24;90872.91;;;7.10
71807;BMP280;59655;42.590;23.364;2023-04-03T05:11:50;90868.50;;;6.97
71807;BMP280;59655;42.590;23.364;2023-04-03T05:14:15;90865.19;;;7.12
71807;BMP280;59655;42.590;23.364;2023-04-03T05:16:41;90862.03;;;7.21
71807;BMP280;59655;42.590;23.364;2023-04-03T05:19:06;90864.69;;;7.29
71807;BMP280;59655;42.590;23.364;2023-04-03T05:21:31;90867.34;;;7.37
71807;BMP280;59655;42.590;23.364;2023-04-03T05:23:58;90874.56;;;7.44
71807;BMP280;59655;42.590;23.364;2023-04-03T05:26:25;90865.59;;;7.47
71807;BMP280;59655;42.590;23.364;2023-04-03T05:28:51;90867.34;;;7.44
71807;BMP280;59655;42.590;23.364;2023-04-03T05:31:17;90878.44;;;7.50
71807;BMP280;59655;42.590;23.364;2023-04-03T05:33:42;90864.88;;;7.54
71807;BMP280;59655;42.590;23.364;2023-04-03T05:36:08;90862.09;;;7.60
71807;BMP280;59655;42.590;23.364;2023-04-03T05:38:33;90856.63;;;7.65
71807;BMP280;59655;42.590;23.364;2023-04-03T05:40:59;90859.09;;;7.71
71807;BMP280;59655;42.590;23.364;2023-04-03T05:43:24;90864.19;;;7.77
71807;BMP280;59655;42.590;23.364;2023-04-03T05:45:51;90860.84;;;7.84
71807;BMP280;59655;42.590;23.364;2023-04-03T05:48:16;90861.88;;;7.88
71807;BMP280;59655;42.590;23.364;2023-04-03T05:50:42;90855.19;;;7.95
71807;BMP280;59655;42.590;23.364;2023-04-03T05:53:17;90848.84;;;7.98
71807;BMP280;59655;42.590;23.364;2023-04-03T05:55:43;90849.19;;;8.02
71807;BMP280;59655;42.590;23.364;2023-04-03T05:58:08;90849.53;;;8.06
71807;BMP280;59655;42.590;23.364;2023-04-03T06:00:34;90839.13;;;8.08
71807;BMP280;59655;42.590;23.364;2023-04-03T06:03:00;90837.38;;;8.11
71807;BMP280;59655;42.590;23.364;2023-04-03T06:05:25;90840.91;;;8.13
71807;BMP280;59655;42.590;23.364;2023-04-03T06:07:50;90841.94;;;8.18
71807;BMP280;59655;42.590;23.364;2023-04-03T06:10:16;90841.56;;;8.22
71807;BMP280;59655;42.590;23.364;2023-04-03T06:12:42;90834.88;;;8.28
71807;BMP280;59655;42.590;23.364;2023-04-03T06:15:08;90841.19;;;8.33
71807;BMP280;59655;42.590;23.364;2023-04-03T06:17:36;90827.78;;;8.38
71807;BMP280;59655;42.590;23.364;2023-04-03T06:20:01;90837.47;;;8.44
71807;BMP280;59655;42.590;23.364;2023-04-03T06:22:27;90834.47;;;8.47
71807;BMP280;59655;42.590;23.364;2023-04-03T06:24:55;90837.28;;;8.49
71807;BMP280;59655;42.590;23.364;2023-04-03T06:27:20;90837.44;;;8.51
71807;BMP280;59655;42.590;23.364;2023-04-03T06:29:45;90844.28;;;8.54
71807;BMP280;59655;42.590;23.364;2023-04-03T06:32:11;90851.16;;;8.57
71807;BMP280;59655;42.590;23.364;2023-04-03T06:34:36;90856.78;;;8.62
71807;BMP280;59655;42.590;23.364;2023-04-03T06:37:02;90860.50;;;8.51
71807;BMP280;59655;42.590;23.364;2023-04-03T06:39:28;90860.66;;;8.60
71807;BMP280;59655;42.590;23.364;2023-04-03T06:41:53;90852.34;;;8.64
71807;BMP280;59655;42.590;23.364;2023-04-03T06:44:18;90857.44;;;8.70
71807;BMP280;59655;42.590;23.364;2023-04-03T06:46:44;90858.88;;;8.71
71807;BMP280;59655;42.590;23.364;2023-04-03T06:49:11;90851.97;;;8.75
71807;BMP280;59655;42.590;23.364;2023-04-03T06:51:37;90858.31;;;8.80
71807;BMP280;59655;42.590;23.364;2023-04-03T06:54:04;90865.66;;;8.81
71807;BMP280;59655;42.590;23.364;2023-04-03T06:56:30;90865.13;;;8.83
71807;BMP280;59655;42.590;23.364;2023-04-03T06:58:56;90870.59;;;8.85
71807;BMP280;59655;42.590;23.364;2023-04-03T07:01:28;90867.06;;;8.90
71807;BMP280;59655;42.590;23.364;2023-04-03T07:03:55;90865.13;;;8.91
71807;BMP280;59655;42.590;23.364;2023-04-03T07:06:22;90869.03;;;8.82
71807;BMP280;59655;42.590;23.364;2023-04-03T07:08:47;90862.25;;;8.96
71807;BMP280;59655;42.590;23.364;2023-04-03T07:11:15;90854.97;;;9.05
71807;BMP280;59655;42.590;23.364;2023-04-03T07:13:41;90852.16;;;9.02
71807;BMP280;59655;42.590;23.364;2023-04-03T07:16:07;90854.81;;;9.02
71807;BMP280;59655;42.590;23.364;2023-04-03T07:18:33;90844.38;;;9.05
71807;BMP280;59655;42.590;23.364;2023-04-03T07:20:59;90850.53;;;9.15
71807;BMP280;59655;42.590;23.364;2023-04-03T07:23:25;90850.34;;;9.13
71807;BMP280;59655;42.590;23.364;2023-04-03T07:25:51;90849.91;;;9.24
71807;BMP280;59655;42.590;23.364;2023-04-03T07:28:18;90845.13;;;9.30
71807;BMP280;59655;42.590;23.364;2023-04-03T07:30:46;90846.50;;;9.31
71807;BMP280;59655;42.590;23.364;2023-04-03T07:33:13;90840.69;;;9.33
71807;BMP280;59655;42.590;23.364;2023-04-03T07:35:40;90837.44;;;9.42
71807;BMP280;59655;42.590;23.364;2023-04-03T07:38:06;90828.72;;;9.49
71807;BMP280;59655;42.590;23.364;2023-04-03T07:40:32;90819.34;;;9.56
71807;BMP280;59655;42.590;23.364;2023-04-03T07:42:57;90819.97;;;9.64
71807;BMP280;59655;42.590;23.364;2023-04-03T07:45:23;90826.28;;;9.69
71807;BMP280;59655;42.590;23.364;2023-04-03T07:47:49;90829.44;;;9.75
71807;BMP280;59655;42.590;23.364;2023-04-03T07:50:15;90831.69;;;9.78
71807;BMP280;59655;42.590;23.364;2023-04-03T07:52:41;90827.25;;;9.81
71807;BMP280;59655;42.590;23.364;2023-04-03T07:55:06;90832.31;;;9.86
71807;BMP280;59655;42.590;23.364;2023-04-03T07:57:32;90827.56;;;9.85
71807;BMP280;59655;42.590;23.364;2023-04-03T07:59:58;90827.41;;;9.83
71807;BMP280;59655;42.590;23.364;2023-04-03T08:02:23;90824.59;;;9.81
71807;BMP280;59655;42.590;23.364;2023-04-03T08:04:49;90828.25;;;9.85
71807;BMP280;59655;42.590;23.364;2023-04-03T08:07:14;90824.22;;;9.84
71807;BMP280;59655;42.590;23.364;2023-04-03T08:09:40;90826.00;;;9.82
71807;BMP280;59655;42.590;23.364;2023-04-03T08:12:06;90825.44;;;9.83
71807;BMP280;59655;42.590;23.364;2023-04-03T08:14:32;90822.94;;;9.85
71807;BMP280;59655;42.590;23.364;2023-04-03T08:17:00;90824.53;;;9.88
71807;BMP280;59655;42.590;23.364;2023-04-03T08:19:26;90832.47;;;9.88
71807;BMP280;59655;42.590;23.364;2023-04-03T08:21:52;90822.19;;;9.93
71807;BMP280;59655;42.590;23.364;2023-04-03T08:24:17;90820.38;;;9.95
71807;BMP280;59655;42.590;23.364;2023-04-03T08:26:43;90821.97;;;9.98
71807;BMP280;59655;42.590;23.364;2023-04-03T08:29:09;90822.81;;;10.01
71807;BMP280;59655;42.590;23.364;2023-04-03T08:31:34;90823.09;;;10.05
71807;BMP280;59655;42.590;23.364;2023-04-03T08:33:59;90828.91;;;10.11
71807;BMP280;59655;42.590;23.364;2023-04-03T08:36:27;90824.75;;;10.18
71807;BMP280;59655;42.590;23.364;2023-04-03T08:38:54;90825.31;;;10.16
71807;BMP280;59655;42.590;23.364;2023-04-03T08:41:29;90816.41;;;10.21
71807;BMP280;59655;42.590;23.364;2023-04-03T08:47:00;90813.06;;;10.21
71807;BMP280;59655;42.590;23.364;2023-04-03T08:49:32;90818.69;;;10.25
71807;BMP280;59655;42.590;23.364;2023-04-03T08:52:02;90811.09;;;10.21
71807;BMP280;59655;42.590;23.364;2023-04-03T08:54:32;90810.00;;;10.24
71807;BMP280;59655;42.590;23.364;2023-04-03T08:56:59;90809.75;;;10.30
71807;BMP280;59655;42.590;23.364;2023-04-03T08:59:33;90809.66;;;10.38
71807;BMP280;59655;42.590;23.364;2023-04-03T09:02:01;90812.41;;;10.30
71807;BMP280;59655;42.590;23.364;2023-04-03T09:04:31;90805.50;;;10.35
71807;BMP280;59655;42.590;23.364;2023-04-03T09:07:03;90791.09;;;10.38
71807;BMP280;59655;42.590;23.364;2023-04-03T09:09:39;90790.19;;;10.43
71807;BMP280;59655;42.590;23.364;2023-04-03T09:12:24;90798.31;;;10.45
71807;BMP280;59655;42.590;23.364;2023-04-03T09:17:59;90791.34;;;10.49
71807;BMP280;59655;42.590;23.364;2023-04-03T09:20:48;90788.84;;;10.51
71807;BMP280;59655;42.590;23.364;2023-04-03T09:23:19;90784.38;;;10.54
71807;BMP280;59655;42.590;23.364;2023-04-03T09:25:46;90786.66;;;10.58
71807;BMP280;59655;42.590;23.364;2023-04-03T09:28:13;90789.44;;;10.60
71807;BMP280;59655;42.590;23.364;2023-04-03T09:30:38;90788.31;;;10.63
71807;BMP280;59655;42.590;23.364;2023-04-03T09:33:04;90784.31;;;10.62
71807;BMP280;59655;42.590;23.364;2023-04-03T09:35:32;90783.72;;;10.63
71807;BMP280;59655;42.590;23.364;2023-04-03T09:38:00;90782.19;;;10.60
71807;BMP280;59655;42.590;23.364;2023-04-03T09:42:57;90781.50;;;10.60
71807;BMP280;59655;42.590;23.364;2023-04-03T09:45:34;90776.56;;;10.56
71807;BMP280;59655;42.590;23.364;2023-04-03T09:48:16;90778.53;;;10.56
71807;BMP280;59655;42.590;23.364;2023-04-03T09:50:54;90762.34;;;10.51
71807;BMP280;59655;42.590;23.364;2023-04-03T09:53:42;90763.84;;;10.54
71807;BMP280;59655;42.590;23.364;2023-04-03T09:56:27;90763.16;;;10.54
71807;BMP280;59655;42.590;23.364;2023-04-03T10:01:36;90770.97;;;10.52
71807;BMP280;59655;42.590;23.364;2023-04-03T10:06:37;90761.78;;;10.53
71807;BMP280;59655;42.590;23.364;2023-04-03T10:09:20;90762.00;;;10.47
71807;BMP280;59655;42.590;23.364;2023-04-03T10:12:07;90765.53;;;10.50
71807;BMP280;59655;42.590;23.364;2023-04-03T10:14:53;90766.50;;;10.54
71807;BMP280;59655;42.590;23.364;2023-04-03T10:22:33;90753.56;;;10.59
71807;BMP280;59655;42.590;23.364;2023-04-03T10:25:10;90749.91;;;10.54
71807;BMP280;59655;42.590;23.364;2023-04-03T10:34:06;90744.00;;;10.46
71807;BMP280;59655;42.590;23.364;2023-04-03T10:44:02;90725.44;;;10.46
71807;BMP280;59655;42.590;23.364;2023-04-03T10:46:50;90731.44;;;10.46
71807;BMP280;59655;42.590;23.364;2023-04-03T10:57:03;90735.59;;;10.40
71807;BMP280;59655;42.590;23.364;2023-04-03T10:59:32;90730.84;;;10.38
71807;BMP280;59655;42.590;23.364;2023-04-03T11:04:34;90739.22;;;10.35
71807;BMP280;59655;42.590;23.364;2023-04-03T11:07:06;90739.75;;;10.33
71807;BMP280;59655;42.590;23.364;2023-04-03T11:09:35;90742.09;;;10.29
71807;BMP280;59655;42.590;23.364;2023-04-03T11:12:13;90745.44;;;10.29
71807;BMP280;59655;42.590;23.364;2023-04-03T11:14:40;90744.72;;;10.19
71807;BMP280;59655;42.590;23.364;2023-04-03T11:19:49;90734.19;;;10.12
71807;BMP280;59655;42.590;23.364;2023-04-03T11:22:27;90739.94;;;10.18
71807;BMP280;59655;42.590;23.364;2023-04-03T11:25:04;90734.31;;;10.14
71807;BMP280;59655;42.590;23.364;2023-04-03T11:27:41;90732.69;;;10.18
71807;BMP280;59655;42.590;23.364;2023-04-03T11:30:15;90734.09;;;10.19
71807;BMP280;59655;42.590;23.364;2023-04-03T11:35:19;90736.16;;;10.11
71807;BMP280;59655;42.590;23.364;2023-04-03T11:37:48;90730.25;;;10.13
71807;BMP280;59655;42.590;23.364;2023-04-03T11:42:42;90732.09;;;10.10
71807;BMP280;59655;42.590;23.364;2023-04-03T11:50:32;90731.41;;;10.09
71807;BMP280;59655;42.590;23.364;2023-04-03T12:00:59;90741.84;;;10.07
71807;BMP280;59655;42.590;23.364;2023-04-03T12:11:24;90752.63;;;9.92
71807;BMP280;59655;42.590;23.364;2023-04-03T12:16:32;90742.38;;;9.88
71807;BMP280;59655;42.590;23.364;2023-04-03T12:26:50;90732.94;;;9.78
71807;BMP280;59655;42.590;23.364;2023-04-03T12:43:39;90684.44;;;9.58
71807;BMP280;59655;42.590;23.364;2023-04-03T12:48:51;90688.19;;;9.55
71807;BMP280;59655;42.590;23.364;2023-04-03T12:51:38;90678.16;;;9.53
71807;BMP280;59655;42.590;23.364;2023-04-03T12:56:50;90677.44;;;9.53
71807;BMP280;59655;42.590;23.364;2023-04-03T12:59:26;90683.44;;;9.53
71807;BMP280;59655;42.590;23.364;2023-04-03T13:01:56;90683.38;;;9.43
71807;BMP280;59655;42.590;23.364;2023-04-03T13:04:23;90686.19;;;9.28
71807;BMP280;59655;42.590;23.364;2023-04-03T13:06:49;90688.97;;;9.30
71807;BMP280;59655;42.590;23.364;2023-04-03T13:09:20;90689.03;;;9.22
71807;BMP280;59655;42.590;23.364;2023-04-03T13:11:49;90675.00;;;9.30
71807;BMP280;59655;42.590;23.364;2023-04-03T13:14:23;90683.34;;;9.26
71807;BMP280;59655;42.590;23.364;2023-04-03T13:16:58;90687.72;;;9.31
71807;BMP280;59655;42.590;23.364;2023-04-03T13:19:28;90681.97;;;9.25
71807;BMP280;59655;42.590;23.364;2023-04-03T13:22:02;90678.44;;;9.22
71807;BMP280;59655;42.590;23.364;2023-04-03T13:24:33;90673.84;;;9.23
71807;BMP280;59655;42.590;23.364;2023-04-03T13:27:00;90673.47;;;9.27
71807;BMP280;59655;42.590;23.364;2023-04-03T13:29:29;90675.97;;;9.24
71807;BMP280;59655;42.590;23.364;2023-04-03T13:31:56;90676.50;;;9.23
71807;BMP280;59655;42.590;23.364;2023-04-03T13:34:25;90664.94;;;9.18
71807;BMP280;59655;42.590;23.364;2023-04-03T13:41:50;90670.44;;;9.13
71807;BMP280;59655;42.590;23.364;2023-04-03T13:46:43;90656.88;;;9.09
71807;BMP280;59655;42.590;23.364;2023-04-03T13:49:29;90654.47;;;9.03
71807;BMP280;59655;42.590;23.364;2023-04-03T13:51:55;90655.59;;;8.92
71807;BMP280;59655;42.590;23.364;2023-04-03T13:54:24;90643.78;;;8.93
71807;BMP280;59655;42.590;23.364;2023-04-03T13:56:55;90646.41;;;8.93
71807;BMP280;59655;42.590;23.364;2023-04-03T13:59:34;90652.81;;;8.90
71807;BMP280;59655;42.590;23.364;2023-04-03T14:04:32;90647.66;;;8.92
71807;BMP280;59655;42.590;23.364;2023-04-03T14:06:59;90641.91;;;8.86
71807;BMP280;59655;42.590;23.364;2023-04-03T14:09:26;90640.13;;;8.89
71807;BMP280;59655;42.590;23.364;2023-04-03T14:12:00;90643.31;;;8.87
71807;BMP280;59655;42.590;23.364;2023-04-03T14:14:32;90641.75;;;8.84
71807;BMP280;59655;42.590;23.364;2023-04-03T14:17:00;90638.38;;;8.84
71807;BMP280;59655;42.590;23.364;2023-04-03T14:19:30;90633.88;;;8.76
71807;BMP280;59655;42.590;23.364;2023-04-03T14:21:56;90639.44;;;8.63
71807;BMP280;59655;42.590;23.364;2023-04-03T14:24:22;90629.72;;;8.66
71807;BMP280;59655;42.590;23.364;2023-04-03T14:26:51;90635.56;;;8.64
71807;BMP280;59655;42.590;23.364;2023-04-03T14:29:17;90641.88;;;8.69
71807;BMP280;59655;42.590;23.364;2023-04-03T14:31:45;90637.44;;;8.71
71807;BMP280;59655;42.590;23.364;2023-04-03T14:34:11;90643.53;;;8.56
71807;BMP280;59655;42.590;23.364;2023-04-03T14:36:38;90631.69;;;8.65
71807;BMP280;59655;42.590;23.364;2023-04-03T14:39:05;90629.41;;;8.62
71807;BMP280;59655;42.590;23.364;2023-04-03T14:41:31;90626.56;;;8.67
71807;BMP280;59655;42.590;23.364;2023-04-03T14:43:56;90633.00;;;8.74
71807;BMP280;59655;42.590;23.364;2023-04-03T14:48:48;90630.78;;;8.70
71807;BMP280;59655;42.590;23.364;2023-04-03T14:51:15;90628.84;;;8.71
71807;BMP280;59655;42.590;23.364;2023-04-03T14:53:42;90627.19;;;8.75
71807;BMP280;59655;42.590;23.364;2023-04-03T14:58:38;90607.69;;;8.46
71807;BMP280;59655;42.590;23.364;2023-04-03T15:01:03;90619.00;;;8.64
71807;BMP280;59655;42.590;23.364;2023-04-03T15:03:29;90617.94;;;8.67
71807;BMP280;59655;42.590;23.364;2023-04-03T15:05:54;90611.00;;;8.71
71807;BMP280;59655;42.590;23.364;2023-04-03T15:08:25;90606.25;;;8.70
71807;BMP280;59655;42.590;23.364;2023-04-03T15:10:51;90603.75;;;8.72
71807;BMP280;59655;42.590;23.364;2023-04-03T15:13:21;90599.59;;;8.69
71807;BMP280;59655;42.590;23.364;2023-04-03T15:15:47;90589.81;;;8.54
71807;BMP280;59655;42.590;23.364;2023-04-03T15:18:19;90589.91;;;8.64
71807;BMP280;59655;42.590;23.364;2023-04-03T15:20:45;90596.53;;;8.72
71807;BMP280;59655;42.590;23.364;2023-04-03T15:23:12;90581.59;;;8.67
71807;BMP280;59655;42.590;23.364;2023-04-03T15:25:44;90581.59;;;8.67
71807;BMP280;59655;42.590;23.364;2023-04-03T15:28:25;90585.09;;;8.70
71807;BMP280;59655;42.590;23.364;2023-04-03T15:30:52;90585.63;;;8.68
71807;BMP280;59655;42.590;23.364;2023-04-03T15:33:17;90569.63;;;8.66
71807;BMP280;59655;42.590;23.364;2023-04-03T15:35:43;90574.38;;;8.68
71807;BMP280;59655;42.590;23.364;2023-04-03T15:38:08;90577.56;;;8.66
71807;BMP280;59655;42.590;23.364;2023-04-03T15:40:34;90572.97;;;8.67
71807;BMP280;59655;42.590;23.364;2023-04-03T15:43:00;90565.75;;;8.67
71807;BMP280;59655;42.590;23.364;2023-04-03T15:45:28;90560.66;;;8.62
71807;BMP280;59655;42.590;23.364;2023-04-03T15:47:54;90568.75;;;8.64
71807;BMP280;59655;42.590;23.364;2023-04-03T15:50:20;90567.91;;;8.61
71807;BMP280;59655;42.590;23.364;2023-04-03T15:52:48;90559.69;;;8.57
71807;BMP280;59655;42.590;23.364;2023-04-03T15:55:16;90567.97;;;8.53
71807;BMP280;59655;42.590;23.364;2023-04-03T15:57:42;90566.88;;;8.56
71807;BMP280;59655;42.590;23.364;2023-04-03T16:00:08;90562.69;;;8.53
71807;BMP280;59655;42.590;23.364;2023-04-03T16:02:33;90570.16;;;8.47
71807;BMP280;59655;42.590;23.364;2023-04-03T16:04:59;90558.88;;;8.47
71807;BMP280;59655;42.590;23.364;2023-04-03T16:07:25;90566.78;;;8.47
71807;BMP280;59655;42.590;23.364;2023-04-03T16:09:51;90557.72;;;8.40
71807;BMP280;59655;42.590;23.364;2023-04-03T16:12:17;90546.56;;;8.42
71807;BMP280;59655;42.590;23.364;2023-04-03T16:14:42;90541.16;;;8.40